sensor_id;sensor_type;location;lat;lon;timestamp;pressure;altitude;pressure_sealevel;temperature;humidity
9261;BME280;4667;42.726;23.252;2024-03-29T00:00:38;94256.75;;;8.39;42.52
9261;BME280;4667;42.726;23.252;2024-03-29T00:03:04;94680.81;;;11.27;41.88
9261;BME280;4667;42.726;23.252;2024-03-29T00:05:30;94547.84;;;10.47;41.25
9261;BME280;4667;42.726;23.252;2024-03-29T00:07:56;95006.31;;;13.33;41.61
9261;BME280;4667;42.726;23.252;2024-03-29T00:10:22;94652.84;;;10.96;41.69
9261;BME280;4667;42.726;23.252;2024-03-29T00:12:51;94375.31;;;9.15;42.04
9261;BME280;4667;42.726;23.252;2024-03-29T00:15:18;94857.81;;;12.19;41.99
9261;BME280;4667;42.726;23.252;2024-03-29T00:17:46;94595.31;;;10.57;42.71
9261;BME280;4667;42.726;23.252;2024-03-29T00:20:12;94844.03;;;12.32;43.00
9261;BME280;4667;42.726;23.252;2024-03-29T00:22:38;95036.50;;;13.37;43.08
9261;BME280;4667;42.726;23.252;2024-03-29T00:25:06;94522.97;;;10.12;43.49
9261;BME280;4667;42.726;23.252;2024-03-29T00:27:32;94864.66;;;12.30;43.98
9261;BME280;4667;42.726;23.252;2024-03-29T00:29:59;95045.78;;;13.35;44.00
9261;BME280;4667;42.726;23.252;2024-03-29T00:32:25;94821.03;;;11.77;42.75
9261;BME280;4667;42.726;23.252;2024-03-29T00:34:52;94601.88;;;10.34;42.38
9261;BME280;4667;42.726;23.252;2024-03-29T00:37:20;94818.16;;;11.78;43.09
9261;BME280;4667;42.726;23.252;2024-03-29T00:39:47;94776.94;;;11.47;43.81
9261;BME280;4667;42.726;23.252;2024-03-29T00:42:13;94873.13;;;12.07;43.59
9261;BME280;4667;42.726;23.252;2024-03-29T00:44:39;95045.78;;;13.14;43.41
9261;BME280;4667;42.726;23.252;2024-03-29T00:47:07;94766.09;;;11.23;44.13
9261;BME280;4667;42.726;23.252;2024-03-29T00:49:33;94900.56;;;11.80;43.59
9261;BME280;4667;42.726;23.252;2024-03-29T00:52:00;94915.16;;;11.83;43.80
9261;BME280;4667;42.726;23.252;2024-03-29T00:54:26;94755.94;;;10.74;44.05
9261;BME280;4667;42.726;23.252;2024-03-29T00:56:52;94815.91;;;11.04;44.42
9261;BME280;4667;42.726;23.252;2024-03-29T00:59:18;94998.16;;;12.17;45.03
9261;BME280;4667;42.726;23.252;2024-03-29T01:01:44;94992.34;;;12.00;45.63
9261;BME280;4667;42.726;23.252;2024-03-29T01:04:13;95052.16;;;12.37;44.84
9261;BME280;4667;42.726;23.252;2024-03-29T01:06:39;95007.69;;;12.08;44.27
9261;BME280;4667;42.726;23.252;2024-03-29T01:09:05;94948.09;;;11.65;43.97
9261;BME280;4667;42.726;23.252;2024-03-29T01:11:32;95000.91;;;11.60;44.63
9261;BME280;4667;42.726;23.252;2024-03-29T01:13:58;94910.19;;;11.24;44.25
9261;BME280;4667;42.726;23.252;2024-03-29T01:16:24;94598.47;;;9.23;44.00
9261;BME280;4667;42.726;23.252;2024-03-29T01:18:50;94874.19;;;10.92;44.38
9261;BME280;4667;42.726;23.252;2024-03-29T01:21:18;95028.53;;;12.00;44.93
9261;BME280;4667;42.726;23.252;2024-03-29T01:23:44;94718.41;;;9.94;44.74
9261;BME280;4667;42.726;23.252;2024-03-29T01:26:10;94375.63;;;7.81;44.37
9261;BME280;4667;42.726;23.252;2024-03-29T01:28:36;94632.03;;;9.48;45.15
9261;BME280;4667;42.726;23.252;2024-03-29T01:31:03;94825.22;;;10.59;45.33
9261;BME280;4667;42.726;23.252;2024-03-29T01:33:29;94874.47;;;10.96;45.09
9261;BME280;4667;42.726;23.252;2024-03-29T01:35:55;94588.19;;;9.17;44.42
9261;BME280;4667;42.726;23.252;2024-03-29T01:38:23;94771.75;;;10.16;44.93
9261;BME280;4667;42.726;23.252;2024-03-29T01:40:48;94907.53;;;11.18;44.96
9261;BME280;4667;42.726;23.252;2024-03-29T01:43:14;94641.72;;;9.37;44.67
9261;BME280;4667;42.726;23.252;2024-03-29T01:45:43;94961.84;;;11.62;45.10
9261;BME280;4667;42.726;23.252;2024-03-29T01:48:15;95054.47;;;12.18;44.77
9261;BME280;4667;42.726;23.252;2024-03-29T01:50:43;94415.25;;;7.80;45.12
9261;BME280;4667;42.726;23.252;2024-03-29T01:53:11;94907.44;;;10.93;44.85
9261;BME280;4667;42.726;23.252;2024-03-29T01:55:40;95036.72;;;11.88;44.44
9261;BME280;4667;42.726;23.252;2024-03-29T01:58:08;94898.53;;;11.09;44.87
9261;BME280;4667;42.726;23.252;2024-03-29T02:00:38;94905.47;;;10.73;45.11
9261;BME280;4667;42.726;23.252;2024-03-29T02:03:06;95081.16;;;12.06;45.08
9261;BME280;4667;42.726;23.252;2024-03-29T02:05:35;95081.72;;;12.08;44.90
9261;BME280;4667;42.726;23.252;2024-03-29T02:08:03;95033.59;;;11.49;45.30
9261;BME280;4667;42.726;23.252;2024-03-29T02:10:29;94913.22;;;10.90;45.03
9261;BME280;4667;42.726;23.252;2024-03-29T02:13:00;94873.00;;;10.67;45.98
9261;BME280;4667;42.726;23.252;2024-03-29T02:15:28;95043.44;;;11.58;45.29
9261;BME280;4667;42.726;23.252;2024-03-29T02:17:55;94974.25;;;11.04;45.39
9261;BME280;4667;42.726;23.252;2024-03-29T02:20:22;94933.72;;;10.78;45.62
9261;BME280;4667;42.726;23.252;2024-03-29T02:22:54;94934.38;;;10.53;46.09
9261;BME280;4667;42.726;23.252;2024-03-29T02:25:23;94949.81;;;10.76;45.68
9261;BME280;4667;42.726;23.252;2024-03-29T02:27:51;95022.00;;;11.02;45.75
9261;BME280;4667;42.726;23.252;2024-03-29T02:30:18;94988.03;;;10.74;45.75
9261;BME280;4667;42.726;23.252;2024-03-29T02:32:45;95026.03;;;10.40;47.18
9261;BME280;4667;42.726;23.252;2024-03-29T02:35:12;95112.03;;;11.06;47.56
9261;BME280;4667;42.726;23.252;2024-03-29T02:37:39;94708.56;;;8.50;47.20
9261;BME280;4667;42.726;23.252;2024-03-29T02:40:07;94856.59;;;9.22;47.30
9261;BME280;4667;42.726;23.252;2024-03-29T02:42:36;95173.97;;;11.30;47.37
9261;BME280;4667;42.726;23.252;2024-03-29T02:45:03;95081.38;;;10.67;47.05
9261;BME280;4667;42.726;23.252;2024-03-29T02:47:31;95171.69;;;11.44;46.67
9261;BME280;4667;42.726;23.252;2024-03-29T02:49:58;94926.69;;;9.87;46.48
9261;BME280;4667;42.726;23.252;2024-03-29T02:52:23;94921.25;;;9.94;46.19
9261;BME280;4667;42.726;23.252;2024-03-29T02:54:50;94528.63;;;7.33;46.21
9261;BME280;4667;42.726;23.252;2024-03-29T02:57:16;94937.97;;;10.09;45.83
9261;BME280;4667;42.726;23.252;2024-03-29T02:59:45;94872.69;;;9.84;45.63
9261;BME280;4667;42.726;23.252;2024-03-29T03:02:11;95184.97;;;11.91;45.62
9261;BME280;4667;42.726;23.252;2024-03-29T03:04:38;95188.16;;;11.93;45.31
9261;BME280;4667;42.726;23.252;2024-03-29T03:07:04;95129.69;;;11.37;45.65
9261;BME280;4667;42.726;23.252;2024-03-29T03:09:45;95198.19;;;11.96;45.24
9261;BME280;4667;42.726;23.252;2024-03-29T03:12:29;95201.94;;;12.01;45.27
9261;BME280;4667;42.726;23.252;2024-03-29T03:14:58;94975.22;;;10.23;45.65
9261;BME280;4667;42.726;23.252;2024-03-29T03:17:26;94603.00;;;8.10;45.05
9261;BME280;4667;42.726;23.252;2024-03-29T03:19:53;95212.47;;;11.95;45.31
9261;BME280;4667;42.726;23.252;2024-03-29T03:22:19;94979.91;;;10.43;45.15
9261;BME280;4667;42.726;23.252;2024-03-29T03:24:46;95093.41;;;11.23;45.31
9261;BME280;4667;42.726;23.252;2024-03-29T03:27:12;95075.44;;;11.25;44.88
9261;BME280;4667;42.726;23.252;2024-03-29T03:29:39;95012.19;;;10.55;44.72
9261;BME280;4667;42.726;23.252;2024-03-29T03:32:06;95210.88;;;11.94;45.11
9261;BME280;4667;42.726;23.252;2024-03-29T03:34:33;95183.72;;;11.62;45.08
9261;BME280;4667;42.726;23.252;2024-03-29T03:37:00;95151.94;;;11.52;45.07
9261;BME280;4667;42.726;23.252;2024-03-29T03:39:27;94967.84;;;10.20;45.01
9261;BME280;4667;42.726;23.252;2024-03-29T03:41:52;94780.41;;;9.10;44.82
9261;BME280;4667;42.726;23.252;2024-03-29T03:44:19;95072.38;;;10.96;44.84
9261;BME280;4667;42.726;23.252;2024-03-29T03:46:47;95076.44;;;11.13;44.47
9261;BME280;4667;42.726;23.252;2024-03-29T03:49:15;94539.72;;;7.62;44.45
9261;BME280;4667;42.726;23.252;2024-03-29T03:51:41;95261.59;;;12.34;44.18
9261;BME280;4667;42.726;23.252;2024-03-29T03:54:09;94818.41;;;9.51;43.92
9261;BME280;4667;42.726;23.252;2024-03-29T03:56:35;94990.16;;;10.72;43.83
9261;BME280;4667;42.726;23.252;2024-03-29T03:59:02;95077.91;;;11.36;43.96
9261;BME280;4667;42.726;23.252;2024-03-29T04:01:28;94547.06;;;7.87;43.98
9261;BME280;4667;42.726;23.252;2024-03-29T04:03:55;94849.22;;;9.78;43.76
9261;BME280;4667;42.726;23.252;2024-03-29T04:06:22;94785.88;;;9.30;44.14
9261;BME280;4667;42.726;23.252;2024-03-29T04:08:49;95095.16;;;11.07;44.19
9261;BME280;4667;42.726;23.252;2024-03-29T04:11:15;94416.66;;;6.68;44.33
9261;BME280;4667;42.726;23.252;2024-03-29T04:13:42;95280.28;;;12.22;44.33
9261;BME280;4667;42.726;23.252;2024-03-29T04:16:08;95287.31;;;12.01;44.93
9261;BME280;4667;42.726;23.252;2024-03-29T04:18:35;95006.66;;;10.25;44.37
9261;BME280;4667;42.726;23.252;2024-03-29T04:21:03;94941.63;;;10.03;44.33
9261;BME280;4667;42.726;23.252;2024-03-29T04:23:31;95224.91;;;12.00;43.87
9261;BME280;4667;42.726;23.252;2024-03-29T04:25:58;95294.22;;;12.49;43.51
9261;BME280;4667;42.726;23.252;2024-03-29T04:28:26;95309.31;;;12.54;43.53
9261;BME280;4667;42.726;23.252;2024-03-29T04:30:53;95234.31;;;12.28;43.08
9261;BME280;4667;42.726;23.252;2024-03-29T04:33:20;95214.66;;;12.04;43.67
9261;BME280;4667;42.726;23.252;2024-03-29T04:35:57;95184.53;;;11.67;43.68
9261;BME280;4667;42.726;23.252;2024-03-29T04:38:24;95320.31;;;12.93;44.06
9261;BME280;4667;42.726;23.252;2024-03-29T04:40:54;95326.59;;;12.77;43.30
9261;BME280;4667;42.726;23.252;2024-03-29T04:43:22;95109.06;;;11.39;42.76
9261;BME280;4667;42.726;23.252;2024-03-29T04:46:01;95292.50;;;12.81;43.30
9261;BME280;4667;42.726;23.252;2024-03-29T04:48:30;95110.75;;;11.56;43.04
9261;BME280;4667;42.726;23.252;2024-03-29T04:50:59;95338.66;;;13.20;42.61
9261;BME280;4667;42.726;23.252;2024-03-29T04:53:26;95169.47;;;12.10;42.95
9261;BME280;4667;42.726;23.252;2024-03-29T04:55:57;94847.03;;;10.07;42.62
9261;BME280;4667;42.726;23.252;2024-03-29T04:58:25;95309.78;;;13.14;42.25
9261;BME280;4667;42.726;23.252;2024-03-29T05:00:52;94408.88;;;7.44;42.05
9261;BME280;4667;42.726;23.252;2024-03-29T05:03:20;94529.78;;;8.18;42.22
9261;BME280;4667;42.726;23.252;2024-03-29T05:05:49;94878.69;;;10.44;41.86
9261;BME280;4667;42.726;23.252;2024-03-29T05:08:17;95352.59;;;13.68;42.12
9261;BME280;4667;42.726;23.252;2024-03-29T05:10:48;95117.94;;;12.23;41.54
9261;BME280;4667;42.726;23.252;2024-03-29T05:13:17;94821.53;;;10.18;41.64
9261;BME280;4667;42.726;23.252;2024-03-29T05:15:45;95068.94;;;11.90;41.75
9261;BME280;4667;42.726;23.252;2024-03-29T05:18:12;95102.78;;;11.93;41.39
9261;BME280;4667;42.726;23.252;2024-03-29T05:20:40;95370.38;;;13.83;41.86
9261;BME280;4667;42.726;23.252;2024-03-29T05:23:12;95190.31;;;12.69;41.39
9261;BME280;4667;42.726;23.252;2024-03-29T05:25:39;95384.94;;;13.86;41.43
9261;BME280;4667;42.726;23.252;2024-03-29T05:28:06;94654.69;;;9.12;41.71
9261;BME280;4667;42.726;23.252;2024-03-29T05:30:35;95304.31;;;13.46;42.07
9261;BME280;4667;42.726;23.252;2024-03-29T05:33:03;95049.00;;;11.62;42.51
9261;BME280;4667;42.726;23.252;2024-03-29T05:35:30;95141.78;;;12.33;42.74
9261;BME280;4667;42.726;23.252;2024-03-29T05:37:57;95248.34;;;12.96;42.07
9261;BME280;4667;42.726;23.252;2024-03-29T05:40:24;94999.59;;;11.57;42.35
9261;BME280;4667;42.726;23.252;2024-03-29T05:42:53;94952.91;;;11.10;42.34
9261;BME280;4667;42.726;23.252;2024-03-29T05:45:25;95199.63;;;13.08;42.44
9261;BME280;4667;42.726;23.252;2024-03-29T05:47:53;95253.47;;;13.39;42.38
9261;BME280;4667;42.726;23.252;2024-03-29T05:50:21;95395.28;;;14.43;41.91
9261;BME280;4667;42.726;23.252;2024-03-29T05:52:50;95315.50;;;13.94;42.27
9261;BME280;4667;42.726;23.252;2024-03-29T05:55:18;95360.81;;;14.33;42.52
9261;BME280;4667;42.726;23.252;2024-03-29T05:57:45;95316.00;;;13.96;42.77
9261;BME280;4667;42.726;23.252;2024-03-29T06:00:14;95236.25;;;13.57;42.73
9261;BME280;4667;42.726;23.252;2024-03-29T06:02:41;95394.25;;;14.65;42.10
9261;BME280;4667;42.726;23.252;2024-03-29T06:05:11;95234.13;;;13.59;41.76
9261;BME280;4667;42.726;23.252;2024-03-29T06:07:40;95227.47;;;13.61;41.76
9261;BME280;4667;42.726;23.252;2024-03-29T06:10:07;94906.31;;;11.41;42.17
9261;BME280;4667;42.726;23.252;2024-03-29T06:12:35;95401.66;;;14.73;42.39
9261;BME280;4667;42.726;23.252;2024-03-29T06:15:07;95037.59;;;12.34;42.59
9261;BME280;4667;42.726;23.252;2024-03-29T06:17:51;95405.88;;;14.84;42.42
9261;BME280;4667;42.726;23.252;2024-03-29T06:20:22;95402.66;;;14.97;42.46
9261;BME280;4667;42.726;23.252;2024-03-29T06:22:49;94612.47;;;9.86;42.17
9261;BME280;4667;42.726;23.252;2024-03-29T06:25:16;94860.38;;;11.48;42.61
9261;BME280;4667;42.726;23.252;2024-03-29T06:27:43;95288.63;;;14.36;42.26
9261;BME280;4667;42.726;23.252;2024-03-29T06:30:16;95407.59;;;15.29;42.60
9261;BME280;4667;42.726;23.252;2024-03-29T06:32:51;94974.38;;;12.53;42.29
9261;BME280;4667;42.726;23.252;2024-03-29T06:35:17;95414.13;;;15.57;42.65
9261;BME280;4667;42.726;23.252;2024-03-29T06:37:49;95404.50;;;15.72;41.61
9261;BME280;4667;42.726;23.252;2024-03-29T06:40:16;95186.81;;;14.22;40.57
9261;BME280;4667;42.726;23.252;2024-03-29T06:42:43;95372.09;;;15.65;39.35
9261;BME280;4667;42.726;23.252;2024-03-29T06:45:10;95327.78;;;15.45;38.90
9261;BME280;4667;42.726;23.252;2024-03-29T06:47:37;95414.34;;;16.10;38.68
9261;BME280;4667;42.726;23.252;2024-03-29T06:50:05;95365.06;;;15.84;38.28
9261;BME280;4667;42.726;23.252;2024-03-29T06:52:32;95417.41;;;16.28;38.52
9261;BME280;4667;42.726;23.252;2024-03-29T06:55:00;95417.59;;;16.36;38.44
9261;BME280;4667;42.726;23.252;2024-03-29T06:57:29;95306.69;;;15.64;37.33
9261;BME280;4667;42.726;23.252;2024-03-29T06:59:57;95434.25;;;16.52;37.13
9261;BME280;4667;42.726;23.252;2024-03-29T07:02:26;95055.78;;;14.23;36.64
9261;BME280;4667;42.726;23.252;2024-03-29T07:04:53;95284.94;;;15.91;36.13
9261;BME280;4667;42.726;23.252;2024-03-29T07:07:20;95173.06;;;15.14;36.05
9261;BME280;4667;42.726;23.252;2024-03-29T07:09:47;95000.34;;;14.21;35.87
9261;BME280;4667;42.726;23.252;2024-03-29T07:12:16;95464.22;;;16.97;35.76
9261;BME280;4667;42.726;23.252;2024-03-29T07:14:43;94533.50;;;11.34;35.58
9261;BME280;4667;42.726;23.252;2024-03-29T07:17:11;95014.91;;;14.68;35.42
9261;BME280;4667;42.726;23.252;2024-03-29T07:19:38;95151.31;;;15.46;36.01
9261;BME280;4667;42.726;23.252;2024-03-29T07:22:05;95438.28;;;17.32;36.32
9261;BME280;4667;42.726;23.252;2024-03-29T07:24:32;95306.00;;;16.69;35.54
9261;BME280;4667;42.726;23.252;2024-03-29T07:26:59;95027.75;;;14.90;35.67
9261;BME280;4667;42.726;23.252;2024-03-29T07:29:28;95433.63;;;17.85;34.93
9261;BME280;4667;42.726;23.252;2024-03-29T07:31:55;95388.09;;;17.58;34.91
9261;BME280;4667;42.726;23.252;2024-03-29T07:34:23;94885.50;;;14.55;35.39
9261;BME280;4667;42.726;23.252;2024-03-29T07:36:50;95407.81;;;18.00;35.01
9261;BME280;4667;42.726;23.252;2024-03-29T07:39:17;94973.03;;;15.42;33.61
9261;BME280;4667;42.726;23.252;2024-03-29T07:41:45;95422.34;;;18.26;34.79
9261;BME280;4667;42.726;23.252;2024-03-29T07:44:12;95085.09;;;16.21;33.88
9261;BME280;4667;42.726;23.252;2024-03-29T07:46:40;95045.19;;;16.02;33.21
9261;BME280;4667;42.726;23.252;2024-03-29T07:49:07;95076.25;;;15.83;33.69
9261;BME280;4667;42.726;23.252;2024-03-29T07:51:34;95068.47;;;16.10;34.10
9261;BME280;4667;42.726;23.252;2024-03-29T07:54:01;95223.53;;;17.07;34.19
9261;BME280;4667;42.726;23.252;2024-03-29T07:56:28;95324.47;;;18.22;34.89
9261;BME280;4667;42.726;23.252;2024-03-29T07:58:55;95221.91;;;17.95;31.91
9261;BME280;4667;42.726;23.252;2024-03-29T08:01:23;95348.03;;;19.07;32.09
9261;BME280;4667;42.726;23.252;2024-03-29T08:06:51;94706.41;;;16.26;29.80
9261;BME280;4667;42.726;23.252;2024-03-29T08:09:19;95293.59;;;20.43;29.29
9261;BME280;4667;42.726;23.252;2024-03-29T08:11:46;95429.69;;;22.22;28.63
9261;BME280;4667;42.726;23.252;2024-03-29T08:14:13;95106.31;;;20.90;27.75
9261;BME280;4667;42.726;23.252;2024-03-29T08:16:40;95208.06;;;21.12;27.82
9261;BME280;4667;42.726;23.252;2024-03-29T08:19:08;95408.88;;;23.01;26.42
9261;BME280;4667;42.726;23.252;2024-03-29T08:21:35;95274.34;;;21.98;27.15
9261;BME280;4667;42.726;23.252;2024-03-29T08:24:04;95398.16;;;23.60;26.95
9261;BME280;4667;42.726;23.252;2024-03-29T08:26:31;95120.44;;;21.68;25.89
9261;BME280;4667;42.726;23.252;2024-03-29T08:28:58;95152.72;;;22.45;25.36
9261;BME280;4667;42.726;23.252;2024-03-29T08:31:24;95378.94;;;24.33;24.84
9261;BME280;4667;42.726;23.252;2024-03-29T08:33:52;95385.34;;;24.07;24.88
9261;BME280;4667;42.726;23.252;2024-03-29T08:36:19;94824.41;;;20.32;24.77
9261;BME280;4667;42.726;23.252;2024-03-29T08:38:45;95312.25;;;23.76;25.02
9261;BME280;4667;42.726;23.252;2024-03-29T08:41:14;95383.50;;;23.99;26.49
9261;BME280;4667;42.726;23.252;2024-03-29T08:43:41;95310.31;;;24.30;24.69
9261;BME280;4667;42.726;23.252;2024-03-29T08:46:08;95204.69;;;24.37;23.75
9261;BME280;4667;42.726;23.252;2024-03-29T08:48:35;95126.69;;;24.20;23.41
9261;BME280;4667;42.726;23.252;2024-03-29T08:51:05;95373.94;;;26.11;22.89
9261;BME280;4667;42.726;23.252;2024-03-29T08:53:32;95318.31;;;24.72;23.96
9261;BME280;4667;42.726;23.252;2024-03-29T08:55:59;95138.31;;;24.45;24.30
9261;BME280;4667;42.726;23.252;2024-03-29T08:58:27;95367.09;;;26.42;22.05
9261;BME280;4667;42.726;23.252;2024-03-29T09:00:55;95253.47;;;25.30;22.19
9261;BME280;4667;42.726;23.252;2024-03-29T09:03:22;95352.84;;;26.73;22.12
9261;BME280;4667;42.726;23.252;2024-03-29T09:05:50;95230.50;;;25.76;21.54
9261;BME280;4667;42.726;23.252;2024-03-29T09:08:18;95075.19;;;25.26;21.07
9261;BME280;4667;42.726;23.252;2024-03-29T09:10:45;95347.63;;;28.33;20.60
9261;BME280;4667;42.726;23.252;2024-03-29T09:13:12;95138.16;;;26.65;21.19
9261;BME280;4667;42.726;23.252;2024-03-29T09:15:41;95328.16;;;27.73;21.17
9261;BME280;4667;42.726;23.252;2024-03-29T09:18:08;95327.63;;;28.03;19.93
9261;BME280;4667;42.726;23.252;2024-03-29T09:20:44;95245.00;;;27.07;19.34
9261;BME280;4667;42.726;23.252;2024-03-29T09:23:11;95169.22;;;26.56;18.99
9261;BME280;4667;42.726;23.252;2024-03-29T09:25:42;95330.78;;;28.43;18.88
9261;BME280;4667;42.726;23.252;2024-03-29T09:28:09;95222.69;;;27.64;20.83
9261;BME280;4667;42.726;23.252;2024-03-29T09:30:36;95309.00;;;29.32;18.31
9261;BME280;4667;42.726;23.252;2024-03-29T09:33:05;95306.41;;;29.39;17.44
9261;BME280;4667;42.726;23.252;2024-03-29T09:35:34;95083.66;;;27.80;16.86
9261;BME280;4667;42.726;23.252;2024-03-29T09:38:01;94744.22;;;25.37;18.55
9261;BME280;4667;42.726;23.252;2024-03-29T09:40:29;95295.50;;;29.92;18.27
9261;BME280;4667;42.726;23.252;2024-03-29T09:43:00;95297.78;;;29.33;18.44
9261;BME280;4667;42.726;23.252;2024-03-29T09:45:29;95292.50;;;30.00;19.08
9261;BME280;4667;42.726;23.252;2024-03-29T09:48:00;95187.66;;;29.69;17.08
9261;BME280;4667;42.726;23.252;2024-03-29T09:50:30;95196.84;;;29.91;16.96
9261;BME280;4667;42.726;23.252;2024-03-29T09:52:57;95283.47;;;29.93;17.11
9261;BME280;4667;42.726;23.252;2024-03-29T09:55:25;95215.34;;;29.48;16.79
9261;BME280;4667;42.726;23.252;2024-03-29T09:57:51;95275.72;;;29.95;17.65
9261;BME280;4667;42.726;23.252;2024-03-29T10:00:18;95270.69;;;30.27;16.96
9261;BME280;4667;42.726;23.252;2024-03-29T10:02:49;95266.41;;;30.29;16.57
9261;BME280;4667;42.726;23.252;2024-03-29T10:05:16;95254.44;;;30.04;17.23
9261;BME280;4667;42.726;23.252;2024-03-29T10:07:45;95108.19;;;29.16;17.00
9261;BME280;4667;42.726;23.252;2024-03-29T10:10:13;95069.31;;;29.42;17.32
9261;BME280;4667;42.726;23.252;2024-03-29T10:12:40;95125.00;;;29.55;16.66
9261;BME280;4667;42.726;23.252;2024-03-29T10:15:08;95188.16;;;29.48;17.85
9261;BME280;4667;42.726;23.252;2024-03-29T10:17:39;95093.34;;;29.73;18.35
9261;BME280;4667;42.726;23.252;2024-03-29T10:20:07;95245.53;;;31.29;16.49
9261;BME280;4667;42.726;23.252;2024-03-29T10:22:40;95251.03;;;31.40;17.04
9261;BME280;4667;42.726;23.252;2024-03-29T10:25:10;95261.34;;;31.75;16.19
9261;BME280;4667;42.726;23.252;2024-03-29T10:27:38;95233.84;;;31.29;16.55
9261;BME280;4667;42.726;23.252;2024-03-29T10:30:07;95258.41;;;31.33;16.62
9261;BME280;4667;42.726;23.252;2024-03-29T10:32:37;94873.69;;;28.94;16.22
9261;BME280;4667;42.726;23.252;2024-03-29T10:35:05;95246.66;;;31.94;16.40
9261;BME280;4667;42.726;23.252;2024-03-29T10:37:32;95079.00;;;31.49;16.46
9261;BME280;4667;42.726;23.252;2024-03-29T10:40:06;95112.53;;;31.74;16.71
9261;BME280;4667;42.726;23.252;2024-03-29T10:42:36;95247.97;;;32.86;15.63
9261;BME280;4667;42.726;23.252;2024-03-29T10:45:05;95180.03;;;32.02;15.55
9261;BME280;4667;42.726;23.252;2024-03-29T10:47:33;95093.41;;;31.56;16.72
9261;BME280;4667;42.726;23.252;2024-03-29T10:50:01;95236.63;;;32.30;15.99
9261;BME280;4667;42.726;23.252;2024-03-29T10:52:30;95245.88;;;31.97;15.64
9261;BME280;4667;42.726;23.252;2024-03-29T10:54:58;95242.91;;;31.51;16.07
9261;BME280;4667;42.726;23.252;2024-03-29T10:57:25;95246.03;;;31.53;16.10
9261;BME280;4667;42.726;23.252;2024-03-29T11:00:02;95225.06;;;31.64;16.34
9261;BME280;4667;42.726;23.252;2024-03-29T11:02:35;95232.69;;;31.30;18.86
9261;BME280;4667;42.726;23.252;2024-03-29T11:05:09;95222.19;;;32.26;17.08
9261;BME280;4667;42.726;23.252;2024-03-29T11:07:40;95230.81;;;32.36;15.69
9261;BME280;4667;42.726;23.252;2024-03-29T11:10:11;95227.56;;;31.98;16.08
9261;BME280;4667;42.726;23.252;2024-03-29T11:12:47;95215.75;;;31.76;16.35
9261;BME280;4667;42.726;23.252;2024-03-29T11:15:29;95221.72;;;31.99;16.60
9261;BME280;4667;42.726;23.252;2024-03-29T11:17:57;95209.59;;;31.86;16.69
9261;BME280;4667;42.726;23.252;2024-03-29T11:20:25;95212.13;;;31.43;16.40
9261;BME280;4667;42.726;23.252;2024-03-29T11:23:04;95223.06;;;31.57;16.62
9261;BME280;4667;42.726;23.252;2024-03-29T11:25:42;95212.72;;;31.85;16.36
9261;BME280;4667;42.726;23.252;2024-03-29T11:28:10;95220.59;;;32.15;16.99
9261;BME280;4667;42.726;23.252;2024-03-29T11:30:45;95220.31;;;32.98;15.28
9261;BME280;4667;42.726;23.252;2024-03-29T11:33:31;95214.38;;;33.46;15.41
9261;BME280;4667;42.726;23.252;2024-03-29T11:35:59;95222.53;;;33.57;15.11
9261;BME280;4667;42.726;23.252;2024-03-29T11:38:31;95217.97;;;32.97;15.19
9261;BME280;4667;42.726;23.252;2024-03-29T11:41:05;95138.56;;;31.50;15.82
9261;BME280;4667;42.726;23.252;2024-03-29T11:43:32;95212.31;;;31.86;16.60
9261;BME280;4667;42.726;23.252;2024-03-29T11:46:02;95202.53;;;31.74;16.45
9261;BME280;4667;42.726;23.252;2024-03-29T11:48:30;95206.88;;;31.86;16.24
9261;BME280;4667;42.726;23.252;2024-03-29T11:50:58;95194.44;;;31.99;16.67
9261;BME280;4667;42.726;23.252;2024-03-29T11:53:26;95217.16;;;32.53;15.50
9261;BME280;4667;42.726;23.252;2024-03-29T11:55:55;95206.63;;;33.05;15.20
9261;BME280;4667;42.726;23.252;2024-03-29T11:58:22;95197.28;;;32.64;16.03
9261;BME280;4667;42.726;23.252;2024-03-29T12:00:50;95053.13;;;31.03;16.29
9261;BME280;4667;42.726;23.252;2024-03-29T12:03:19;95177.38;;;32.38;17.32
9261;BME280;4667;42.726;23.252;2024-03-29T12:05:48;95189.47;;;32.37;16.62
9261;BME280;4667;42.726;23.252;2024-03-29T12:08:16;95188.66;;;32.33;16.32
9261;BME280;4667;42.726;23.252;2024-03-29T12:10:43;95199.25;;;32.92;16.34
9261;BME280;4667;42.726;23.252;2024-03-29T12:13:11;95186.09;;;33.85;14.04
9261;BME280;4667;42.726;23.252;2024-03-29T12:15:40;95186.84;;;33.93;13.64
9261;BME280;4667;42.726;23.252;2024-03-29T12:18:07;95180.19;;;33.97;13.77
9261;BME280;4667;42.726;23.252;2024-03-29T12:20:35;95184.53;;;33.87;14.19
9261;BME280;4667;42.726;23.252;2024-03-29T12:23:04;95184.13;;;33.89;13.78
9261;BME280;4667;42.726;23.252;2024-03-29T12:25:33;95184.19;;;33.75;13.49
9261;BME280;4667;42.726;23.252;2024-03-29T12:28:00;95184.66;;;33.59;13.74
9261;BME280;4667;42.726;23.252;2024-03-29T12:30:28;95177.22;;;33.63;13.52
9261;BME280;4667;42.726;23.252;2024-03-29T12:33:02;95178.72;;;33.78;13.93
9261;BME280;4667;42.726;23.252;2024-03-29T12:35:29;95175.75;;;34.77;13.48
9261;BME280;4667;42.726;23.252;2024-03-29T12:38:00;95172.69;;;34.68;13.04
9261;BME280;4667;42.726;23.252;2024-03-29T12:40:29;95168.69;;;34.24;13.17
9261;BME280;4667;42.726;23.252;2024-03-29T12:43:03;95159.34;;;34.21;12.75
9261;BME280;4667;42.726;23.252;2024-03-29T12:45:30;95169.88;;;34.26;12.56
9261;BME280;4667;42.726;23.252;2024-03-29T12:47:57;95164.03;;;33.26;12.11
9261;BME280;4667;42.726;23.252;2024-03-29T12:50:26;95150.81;;;33.06;12.67
9261;BME280;4667;42.726;23.252;2024-03-29T12:52:54;95164.84;;;33.16;13.08
9261;BME280;4667;42.726;23.252;2024-03-29T12:55:23;95147.63;;;33.29;12.91
9261;BME280;4667;42.726;23.252;2024-03-29T12:58:00;95154.63;;;33.48;11.76
9261;BME280;4667;42.726;23.252;2024-03-29T13:00:27;95168.41;;;32.73;12.43
9261;BME280;4667;42.726;23.252;2024-03-29T13:02:56;95168.63;;;33.57;11.88
9261;BME280;4667;42.726;23.252;2024-03-29T13:05:23;95163.44;;;33.84;11.68
9261;BME280;4667;42.726;23.252;2024-03-29T13:07:50;95157.09;;;32.68;12.71
9261;BME280;4667;42.726;23.252;2024-03-29T13:10:17;95089.19;;;33.02;12.26
9261;BME280;4667;42.726;23.252;2024-03-29T13:12:48;95147.66;;;33.11;11.78
9261;BME280;4667;42.726;23.252;2024-03-29T13:15:17;95139.13;;;32.95;12.58
9261;BME280;4667;42.726;23.252;2024-03-29T13:17:44;95146.94;;;32.90;12.32
9261;BME280;4667;42.726;23.252;2024-03-29T13:20:13;95152.44;;;32.43;12.92